createdAt,value
2023-04-22T00:04:35.057Z,100645.21
2023-04-22T00:09:41.200Z,100640.38
2023-04-22T00:14:46.536Z,100634.87
2023-04-22T00:19:52.090Z,100631.08
2023-04-22T00:24:57.799Z,100630.40
2023-04-22T00:30:03.870Z,100629.38
2023-04-22T00:35:10.062Z,100629.90
2023-04-22T00:40:15.924Z,100629.38
2023-04-22T00:45:22.098Z,100626.11
2023-04-22T00:50:28.054Z,100626.96
2023-04-22T00:55:34.593Z,100627.66
2023-04-22T01:00:40.511Z,100632.64
2023-04-22T01:05:48.562Z,100633.67
2023-04-22T01:10:54.540Z,100627.47
2023-04-22T01:16:02.753Z,100625.76
2023-04-22T01:21:08.431Z,100626.09
2023-04-22T01:26:14.017Z,100621.09
2023-04-22T01:31:20.198Z,100621.06
2023-04-22T01:36:27.197Z,100624.33
2023-04-22T01:41:33.227Z,100622.61
2023-04-22T01:46:39.366Z,100623.79
2023-04-22T01:51:45.556Z,100626.16
2023-04-22T01:56:55.863Z,100626.99
2023-04-22T02:02:01.644Z,100626.98
2023-04-22T02:07:07.365Z,100620.96
2023-04-22T02:12:14.171Z,100618.95
2023-04-22T02:17:19.629Z,100614.61
2023-04-22T02:22:27.634Z,100609.07
2023-04-22T02:27:33.392Z,100606.81
2023-04-22T02:32:40.301Z,100603.88
2023-04-22T02:37:46.061Z,100601.96
2023-04-22T02:42:51.732Z,100605.02
2023-04-22T02:47:57.317Z,100604.46
2023-04-22T02:53:02.939Z,100604.81
2023-04-22T02:58:09.297Z,100604.87
2023-04-22T03:03:15.062Z,100607.06
2023-04-22T03:08:20.859Z,100608.05
2023-04-22T03:13:27.176Z,100606.46
2023-04-22T03:18:32.939Z,100606.29
2023-04-22T03:23:38.662Z,100612.63
2023-04-22T03:28:44.615Z,100613.77
2023-04-22T03:33:50.268Z,100615.47
2023-04-22T03:39:04.276Z,100620.12
2023-04-22T03:44:11.084Z,100623.04
2023-04-22T03:49:17.122Z,100628.03
2023-04-22T03:54:23.303Z,100627.00
2023-04-22T03:59:30.775Z,100625.19
2023-04-22T04:04:37.076Z,100630.77
2023-04-22T04:09:43.354Z,100635.30
2023-04-22T04:14:49.880Z,100640.34
2023-04-22T04:19:56.962Z,100644.23
2023-04-22T04:25:02.643Z,100642.75
2023-04-22T04:30:14.444Z,100634.88
2023-04-22T04:35:29.305Z,100638.02
2023-04-22T04:40:36.167Z,100641.17
2023-04-22T04:45:54.916Z,100642.02
2023-04-22T04:51:08.111Z,100642.29
2023-04-22T04:56:17.484Z,100636.57
2023-04-22T05:01:24.626Z,100635.30
2023-04-22T05:06:31.542Z,100632.40
2023-04-22T05:11:41.468Z,100631.60
2023-04-22T05:16:52.416Z,100627.35
2023-04-22T05:21:58.752Z,100626.09
2023-04-22T05:27:04.375Z,100629.09
2023-04-22T05:32:11.661Z,100629.51
2023-04-22T05:37:18.523Z,100630.81
2023-04-22T05:42:24.265Z,100621.91
2023-04-22T05:47:30.133Z,100626.20
2023-04-22T05:52:36.273Z,100626.05
2023-04-22T05:57:51.334Z,100622.18
2023-04-22T06:03:05.985Z,100621.77
2023-04-22T06:08:12.090Z,100619.90
2023-04-22T06:13:17.618Z,100616.26
2023-04-22T06:18:24.849Z,100618.24
2023-04-22T06:23:31.755Z,100617.21
2023-04-22T06:28:37.406Z,100619.42
2023-04-22T06:33:50.442Z,100617.36
2023-04-22T06:38:56.589Z,100611.36
2023-04-22T06:44:13.428Z,100613.75
2023-04-22T06:49:40.229Z,100611.45
2023-04-22T06:55:09.894Z,100615.77
2023-04-22T07:00:16.560Z,100613.30
2023-04-22T07:05:20.715Z,100612.23
2023-04-22T07:10:27.350Z,100608.56
2023-04-22T07:15:53.513Z,100606.78
2023-04-22T07:20:59.502Z,100604.29
2023-04-22T07:26:05.404Z,100606.05
2023-04-22T07:31:10.833Z,100602.72
2023-04-22T07:36:16.358Z,100602.65
2023-04-22T07:41:21.718Z,100596.94
2023-04-22T07:46:28.128Z,100592.27
2023-04-22T07:51:33.711Z,100594.01
2023-04-22T07:56:39.270Z,100589.39
2023-04-22T08:01:47.098Z,100588.48
2023-04-22T08:06:52.879Z,100589.23
2023-04-22T08:11:58.436Z,100588.80
2023-04-22T08:17:04.236Z,100593.81
2023-04-22T08:22:09.704Z,100587.41
2023-04-22T08:27:15.270Z,100589.25
2023-04-22T08:32:22.642Z,100591.62
2023-04-22T08:37:29.666Z,100587.92
2023-04-22T08:42:34.545Z,100588.17
2023-04-22T08:47:41.401Z,100587.45
2023-04-22T08:52:47.771Z,100586.29
2023-04-22T08:57:55.666Z,100582.08
2023-04-22T09:03:03.417Z,100583.86
2023-04-22T09:08:10.876Z,100579.79
2023-04-22T09:13:17.924Z,100578.14
2023-04-22T09:18:23.961Z,100572.50
2023-04-22T09:23:29.438Z,100570.27
2023-04-22T09:28:38.116Z,100567.94
2023-04-22T09:33:50.094Z,100567.17
2023-04-22T09:38:58.637Z,100560.15
2023-04-22T09:44:09.213Z,100558.96
2023-04-22T09:49:17.725Z,100550.02
2023-04-22T09:54:25.700Z,100550.78
2023-04-22T09:59:32.081Z,100544.59
2023-04-22T10:04:38.758Z,100539.46
2023-04-22T10:09:44.786Z,100537.21
2023-04-22T10:14:50.209Z,100534.36
2023-04-22T10:19:56.559Z,100522.57
2023-04-22T10:25:02.345Z,100523.98
2023-04-22T10:30:11.184Z,100521.43
2023-04-22T10:35:17.039Z,100515.98
2023-04-22T10:40:23.823Z,100515.36
2023-04-22T10:45:32.424Z,100516.07
2023-04-22T10:50:39.921Z,100512.28
2023-04-22T10:55:53.593Z,100507.56
2023-04-22T11:01:03.176Z,100501.52
2023-04-22T11:06:18.291Z,100497.23
2023-04-22T11:11:23.944Z,100496.13
2023-04-22T11:16:29.823Z,100490.04
2023-04-22T11:21:35.546Z,100490.80
2023-04-22T11:26:41.752Z,100488.51
2023-04-22T11:31:50.822Z,100484.46
2023-04-22T11:36:58.056Z,100481.30
2023-04-22T11:42:05.220Z,100477.88
2023-04-22T11:47:11.291Z,100477.02
2023-04-22T11:52:16.672Z,100468.95
2023-04-22T11:57:22.431Z,100468.50
2023-04-22T12:02:28.141Z,100466.99
2023-04-22T12:07:34.696Z,100466.83
2023-04-22T12:12:41.950Z,100464.27
2023-04-22T12:17:50.538Z,100462.05
2023-04-22T12:22:57.620Z,100455.92
2023-04-22T12:28:03.950Z,100454.27
2023-04-22T12:33:10.313Z,100451.25
2023-04-22T12:38:16.137Z,100445.73
2023-04-22T12:43:21.945Z,100444.67
2023-04-22T12:48:27.644Z,100438.16
2023-04-22T12:53:33.215Z,100436.08
2023-04-22T12:58:38.932Z,100433.99
2023-04-22T13:03:44.515Z,100431.36
2023-04-22T13:08:50.138Z,100424.70
2023-04-22T13:13:55.630Z,100420.58
2023-04-22T13:19:01.556Z,100413.10
2023-04-22T13:24:07.755Z,100410.17
2023-04-22T13:29:14.189Z,100411.32
2023-04-22T13:34:19.892Z,100408.02
2023-04-22T13:39:26.755Z,100407.21
2023-04-22T13:44:32.220Z,100399.86
2023-04-22T13:49:37.848Z,100401.55
2023-04-22T13:54:43.491Z,100403.30
2023-04-22T13:59:50.751Z,100403.27
2023-04-22T14:04:58.832Z,100393.73
2023-04-22T14:10:06.059Z,100398.39
2023-04-22T14:15:12.148Z,100392.71
2023-04-22T14:20:17.761Z,100391.55
2023-04-22T14:25:23.847Z,100390.39
2023-04-22T14:30:29.508Z,100389.42
2023-04-22T14:35:35.379Z,100388.31
2023-04-22T14:40:41.234Z,100389.56
2023-04-22T14:45:47.649Z,100386.67
2023-04-22T14:50:53.614Z,100382.65
2023-04-22T14:55:59.048Z,100378.52
2023-04-22T15:01:05.785Z,100377.59
2023-04-22T15:06:13.168Z,100378.08
2023-04-22T15:11:18.944Z,100373.40
2023-04-22T15:16:24.971Z,100374.38
2023-04-22T15:21:30.430Z,100374.07
2023-04-22T15:26:36.047Z,100370.36
2023-04-22T15:31:41.817Z,100372.94
2023-04-22T15:36:47.461Z,100369.90
2023-04-22T15:41:53.051Z,100364.53
2023-04-22T15:46:59.627Z,100368.98
2023-04-22T15:52:05.916Z,100364.24
2023-04-22T15:57:11.620Z,100359.80
2023-04-22T16:02:17.615Z,100353.95
2023-04-22T16:07:23.870Z,100354.13
2023-04-22T16:12:29.857Z,100355.16
2023-04-22T16:17:36.969Z,100354.88
2023-04-22T16:22:42.427Z,100354.86
2023-04-22T16:27:47.954Z,100352.89
2023-04-22T16:32:53.470Z,100351.59
2023-04-22T16:37:59.056Z,100344.64
2023-04-22T16:43:05.411Z,100348.98
2023-04-22T16:48:11.122Z,100347.69
2023-04-22T16:53:16.504Z,100344.03
2023-04-22T16:58:22.506Z,100344.61
2023-04-22T17:03:28.375Z,100344.75
2023-04-22T17:08:36.053Z,100350.95
2023-04-22T17:13:41.873Z,100351.14
2023-04-22T17:18:47.541Z,100345.02
2023-04-22T17:23:53.107Z,100345.45
2023-04-22T17:28:59.095Z,100346.17
2023-04-22T17:34:04.565Z,100346.30
2023-04-22T17:39:10.475Z,100353.80
2023-04-22T17:44:15.946Z,100357.02
2023-04-22T17:49:21.810Z,100358.33
2023-04-22T17:54:27.207Z,100363.19
2023-04-22T17:59:32.543Z,100370.67
2023-04-22T18:04:37.936Z,100375.26
2023-04-22T18:09:43.751Z,100376.21
2023-04-22T18:14:49.293Z,100378.85
2023-04-22T18:20:00.082Z,100383.54
2023-04-22T18:25:17.733Z,100387.85
2023-04-22T18:30:24.310Z,100384.45
2023-04-22T18:35:30.833Z,100387.65
2023-04-22T18:40:36.351Z,100392.55
2023-04-22T18:45:42.485Z,100400.08
2023-04-22T18:50:48.292Z,100404.52
2023-04-22T18:55:53.808Z,100402.00
2023-04-22T19:00:59.666Z,100399.90
2023-04-22T19:06:05.823Z,100398.73
2023-04-22T19:11:12.193Z,100393.60
2023-04-22T19:16:17.647Z,100390.97
2023-04-22T19:21:24.324Z,100395.56
2023-04-22T19:26:29.864Z,100396.43
2023-04-22T19:31:37.846Z,100403.58
2023-04-22T19:36:43.532Z,100402.98
2023-04-22T19:41:48.973Z,100399.96
2023-04-22T19:46:55.214Z,100398.36
2023-04-22T19:52:03.613Z,100392.48
2023-04-22T19:57:10.259Z,100393.67
2023-04-22T20:02:16.455Z,100392.75
2023-04-22T20:07:22.740Z,100392.11
2023-04-22T20:12:29.569Z,100387.96
2023-04-22T20:17:39.166Z,100387.77
2023-04-22T20:22:45.981Z,100392.84
2023-04-22T20:27:52.769Z,100389.33
2023-04-22T20:32:58.573Z,100384.38
2023-04-22T20:38:05.243Z,100388.04
2023-04-22T20:43:11.219Z,100387.96
2023-04-22T20:48:16.592Z,100391.39
2023-04-22T20:53:22.771Z,100393.71
2023-04-22T20:58:28.344Z,100392.86
2023-04-22T21:03:35.520Z,100390.77
2023-04-22T21:08:41.568Z,100391.80
2023-04-22T21:13:51.816Z,100394.52
2023-04-22T21:19:03.261Z,100392.27
2023-04-22T21:24:11.439Z,100393.46
2023-04-22T21:29:17.760Z,100393.83
2023-04-22T21:34:23.578Z,100396.35
2023-04-22T21:39:29.102Z,100395.77
2023-04-22T21:44:35.519Z,100401.45
2023-04-22T21:49:40.975Z,100400.80
2023-04-22T21:54:46.513Z,100397.08
2023-04-22T21:59:51.912Z,100401.48
2023-04-22T22:04:57.477Z,100406.82
2023-04-22T22:10:03.531Z,100404.42
2023-04-22T22:15:11.429Z,100403.22
2023-04-22T22:20:20.333Z,100401.51
2023-04-22T22:25:26.949Z,100404.13
2023-04-22T22:30:32.520Z,100402.20
2023-04-22T22:35:37.946Z,100400.64
2023-04-22T22:40:43.515Z,100401.15
2023-04-22T22:45:49.001Z,100398.38
2023-04-22T22:50:54.668Z,100399.98
2023-04-22T22:56:00.164Z,100398.25
2023-04-22T23:01:06.188Z,100400.42
2023-04-22T23:06:11.925Z,100403.90
2023-04-22T23:11:17.700Z,100404.89
2023-04-22T23:16:23.770Z,100408.14
2023-04-22T23:21:31.833Z,100407.63
2023-04-22T23:26:38.319Z,100407.11
2023-04-22T23:31:45.093Z,100405.81
2023-04-22T23:36:52.745Z,100404.53
2023-04-22T23:41:58.136Z,100398.77
2023-04-22T23:47:04.300Z,100395.79
2023-04-22T23:52:11.043Z,100396.30
2023-04-22T23:57:17.609Z,100393.17
